Time;durP1;ratioP1;P1;durP2;ratioP2;P2;SDS_P1;SDS_P2;PMS_P1;PMS_P2;Temp;Humidity;BMP_temperature;BMP_pressure;BME280_temperature;BME280_humidity;BME280_pressure;Samples;Min_cycle;Max_cycle;Signal;HPM_P1;HPM_P2
2023/09/22 00:01:00;;;;;;;1.75;0.88;;;;;;;;;;4994774;28;20041;-65
2023/09/22 00:03:47;;;;;;;1.60;0.80;;;;;;;;;;4982876;28;20025;-65
2023/09/22 00:06:32;;;;;;;1.20;0.85;;;;;;;;;;4977764;28;20040;-67
2023/09/22 00:09:17;;;;;;;0.80;0.63;;;;;;;;;;4994451;28;20421;-67
2023/09/22 00:12:03;;;;;;;1.20;0.90;;;;;;;;;;4994141;28;20046;-66
2023/09/22 00:14:48;;;;;;;2.90;0.90;;;;;;;;;;4994208;28;20038;-68
2023/09/22 00:17:35;;;;;;;1.23;0.68;;;;;;;;;;4994181;28;20096;-67
2023/09/22 00:20:20;;;;;;;3.65;0.93;;;;;;;;;;4994393;28;20033;-67
2023/09/22 00:23:05;;;;;;;1.75;1.20;;;;;;;;;;4994171;28;20124;-72
2023/09/22 00:25:51;;;;;;;2.10;0.93;;;;;;;;;;4993305;28;20033;-67
2023/09/22 00:28:36;;;;;;;1.70;0.90;;;;;;;;;;4994225;28;20037;-77
2023/09/22 00:31:21;;;;;;;3.42;0.88;;;;;;;;;;4974992;28;20080;-77
2023/09/22 00:34:08;;;;;;;3.33;0.82;;;;;;;;;;4990067;28;20038;-76
2023/09/22 00:36:56;;;;;;;3.15;1.00;;;;;;;;;;4994011;28;20508;-77
2023/09/22 00:39:41;;;;;;;2.55;1.13;;;;;;;;;;4994587;28;20446;-77
2023/09/22 00:42:26;;;;;;;1.13;0.90;;;;;;;;;;4993670;28;20134;-68
2023/09/22 00:45:13;;;;;;;1.00;0.80;;;;;;;;;;4993490;28;20053;-71
2023/09/22 00:47:58;;;;;;;1.55;1.02;;;;;;;;;;4993991;28;20052;-71
2023/09/22 00:50:43;;;;;;;1.45;1.05;;;;;;;;;;4987195;28;20041;-71
2023/09/22 00:53:31;;;;;;;1.95;0.93;;;;;;;;;;4997712;28;20060;-71
2023/09/22 00:56:18;;;;;;;1.27;1.10;;;;;;;;;;5000344;28;20108;-71
2023/09/22 00:59:03;;;;;;;2.05;0.82;;;;;;;;;;4997165;28;20045;-74
2023/09/22 01:01:48;;;;;;;2.30;1.10;;;;;;;;;;4996838;28;20096;-69
2023/09/22 01:04:34;;;;;;;2.97;1.00;;;;;;;;;;4983747;28;20389;-70
2023/09/22 01:07:19;;;;;;;1.20;1.10;;;;;;;;;;4997302;28;20725;-69
2023/09/22 01:10:08;;;;;;;2.88;1.13;;;;;;;;;;4996912;28;20072;-70
2023/09/22 01:12:54;;;;;;;1.65;0.90;;;;;;;;;;4996911;28;20672;-69
2023/09/22 01:15:43;;;;;;;0.95;0.85;;;;;;;;;;4997183;28;20034;-69
2023/09/22 01:18:29;;;;;;;1.13;0.82;;;;;;;;;;4996741;28;20393;-73
2023/09/22 01:21:15;;;;;;;0.98;0.90;;;;;;;;;;4989218;28;20038;-66
2023/09/22 01:24:00;;;;;;;1.35;1.10;;;;;;;;;;4984287;28;20417;-67
2023/09/22 01:26:46;;;;;;;2.72;1.33;;;;;;;;;;4979422;28;20042;-67
2023/09/22 01:29:31;;;;;;;3.70;1.00;;;;;;;;;;4996881;28;20033;-67
2023/09/22 01:32:19;;;;;;;1.35;0.88;;;;;;;;;;4996553;28;20042;-65
2023/09/22 01:35:07;;;;;;;2.17;1.20;;;;;;;;;;4996486;28;20069;-66
2023/09/22 01:37:55;;;;;;;2.17;1.10;;;;;;;;;;4996625;28;20041;-67
2023/09/22 01:40:41;;;;;;;2.60;0.80;;;;;;;;;;4996640;28;20057;-67
2023/09/22 01:43:28;;;;;;;3.30;1.20;;;;;;;;;;4996518;28;20069;-67
2023/09/22 01:46:13;;;;;;;4.50;1.58;;;;;;;;;;4996541;28;20428;-67
2023/09/22 01:48:58;;;;;;;1.73;1.20;;;;;;;;;;4996357;28;20099;-67
2023/09/22 01:51:44;;;;;;;2.28;1.17;;;;;;;;;;4996473;28;20049;-68
2023/09/22 01:54:29;;;;;;;1.48;1.00;;;;;;;;;;5006019;28;20041;-67
2023/09/22 01:57:16;;;;;;;3.65;1.10;;;;;;;;;;4982849;28;20038;-72
2023/09/22 02:00:10;;;;;;;2.25;1.10;;;;;;;;;;4995999;28;20040;-72
2023/09/22 02:02:55;;;;;;;3.53;1.40;;;;;;;;;;4995581;28;20477;-72
2023/09/22 02:05:40;;;;;;;3.25;1.02;;;;;;;;;;4985996;28;20076;-72
2023/09/22 02:08:26;;;;;;;3.38;1.17;;;;;;;;;;4995554;28;20486;-71
2023/09/22 02:11:11;;;;;;;2.72;1.05;;;;;;;;;;4982613;28;20029;-71
2023/09/22 02:13:57;;;;;;;1.42;1.15;;;;;;;;;;4995939;28;20118;-71
2023/09/22 02:16:42;;;;;;;2.78;1.23;;;;;;;;;;4981528;28;20077;-73
2023/09/22 02:19:27;;;;;;;0.82;0.82;;;;;;;;;;4995892;28;20435;-72
2023/09/22 02:22:13;;;;;;;2.00;1.20;;;;;;;;;;4982611;28;20041;-73
2023/09/22 02:24:58;;;;;;;2.95;1.42;;;;;;;;;;4989149;28;20042;-72
2023/09/22 02:27:44;;;;;;;2.25;1.15;;;;;;;;;;4995634;28;20026;-73
2023/09/22 02:30:29;;;;;;;3.15;1.23;;;;;;;;;;4995800;28;20034;-72
2023/09/22 02:33:14;;;;;;;3.47;1.08;;;;;;;;;;4995317;28;20041;-64
2023/09/22 02:36:00;;;;;;;1.48;1.00;;;;;;;;;;4995083;28;20037;-65
2023/09/22 02:38:45;;;;;;;3.67;1.20;;;;;;;;;;4994890;28;20018;-66
2023/09/22 02:41:37;;;;;;;1.25;1.15;;;;;;;;;;4986921;28;20718;-67
2023/09/22 02:44:22;;;;;;;3.35;0.93;;;;;;;;;;4995118;28;20029;-65
2023/09/22 02:47:07;;;;;;;1.50;1.10;;;;;;;;;;5006425;28;20520;-64
2023/09/22 02:49:52;;;;;;;3.40;1.00;;;;;;;;;;4991259;28;20040;-65
2023/09/22 02:52:38;;;;;;;3.58;1.25;;;;;;;;;;4994641;28;20046;-64
2023/09/22 02:55:24;;;;;;;3.85;1.30;;;;;;;;;;4995840;28;20044;-72
2023/09/22 02:58:09;;;;;;;1.88;1.10;;;;;;;;;;4976000;28;20042;-72
2023/09/22 03:00:54;;;;;;;4.72;1.40;;;;;;;;;;4976164;28;20038;-73
2023/09/22 03:03:42;;;;;;;1.10;1.00;;;;;;;;;;4988681;28;20038;-73
2023/09/22 03:06:28;;;;;;;2.47;1.10;;;;;;;;;;4981420;28;20025;-71
2023/09/22 03:09:14;;;;;;;13.98;1.52;;;;;;;;;;4995003;28;20719;-65
2023/09/22 03:12:00;;;;;;;1.88;1.30;;;;;;;;;;4994748;28;20029;-68
2023/09/22 03:14:47;;;;;;;1.58;0.90;;;;;;;;;;4992289;28;20109;-69
2023/09/22 03:17:32;;;;;;;1.60;0.95;;;;;;;;;;4994129;28;20048;-69
2023/09/22 03:23:41;;;;;;;3.42;1.00;;;;;;;;;;4995053;28;20089;-69
2023/09/22 03:26:26;;;;;;;1.60;1.08;;;;;;;;;;4983558;28;20034;-68
2023/09/22 03:29:19;;;;;;;2.50;1.02;;;;;;;;;;4994583;28;20671;-65
2023/09/22 03:32:06;;;;;;;2.83;1.20;;;;;;;;;;4974888;28;20026;-70
2023/09/22 03:34:51;;;;;;;6.88;2.30;;;;;;;;;;4992038;28;20053;-70
2023/09/22 03:37:37;;;;;;;2.42;1.17;;;;;;;;;;4994701;28;20073;-69
2023/09/22 03:40:31;;;;;;;7.05;1.73;;;;;;;;;;4980127;28;20038;-69
2023/09/22 03:43:16;;;;;;;3.38;1.20;;;;;;;;;;4993190;28;20036;-69
2023/09/22 03:46:01;;;;;;;4.28;1.42;;;;;;;;;;4995806;28;20029;-72
2023/09/22 03:48:46;;;;;;;2.45;1.10;;;;;;;;;;4993998;28;20095;-68
2023/09/22 03:51:31;;;;;;;2.08;1.33;;;;;;;;;;4994156;28;20120;-69
2023/09/22 03:54:17;;;;;;;2.08;1.02;;;;;;;;;;5004653;28;20025;-69
2023/09/22 03:57:02;;;;;;;3.05;1.20;;;;;;;;;;4994350;28;20022;-71
2023/09/22 03:59:48;;;;;;;2.63;0.93;;;;;;;;;;4994399;28;20046;-71
2023/09/22 04:02:33;;;;;;;2.65;1.20;;;;;;;;;;4993595;28;20077;-68
2023/09/22 04:05:18;;;;;;;2.42;1.58;;;;;;;;;;4994002;28;20030;-69
2023/09/22 04:08:04;;;;;;;1.67;1.30;;;;;;;;;;4994365;28;20113;-77
2023/09/22 04:10:49;;;;;;;8.05;1.50;;;;;;;;;;4993960;28;20081;-76
2023/09/22 04:13:34;;;;;;;2.20;1.35;;;;;;;;;;4977697;28;20034;-76
2023/09/22 04:16:19;;;;;;;4.65;1.58;;;;;;;;;;4994239;28;20034;-77
2023/09/22 04:19:06;;;;;;;2.25;1.40;;;;;;;;;;4990213;28;20097;-77
2023/09/22 04:21:54;;;;;;;2.15;1.17;;;;;;;;;;4993917;28;20120;-77
2023/09/22 04:24:47;;;;;;;5.78;1.55;;;;;;;;;;4993877;28;20636;-66
2023/09/22 04:27:40;;;;;;;1.92;1.23;;;;;;;;;;4994030;28;20425;-69
2023/09/22 04:30:25;;;;;;;3.67;1.48;;;;;;;;;;4996033;28;20065;-68
2023/09/22 04:33:11;;;;;;;2.15;1.10;;;;;;;;;;4997390;28;20041;-69
2023/09/22 04:35:56;;;;;;;4.25;1.42;;;;;;;;;;4997655;28;20022;-69
2023/09/22 04:38:44;;;;;;;2.83;1.42;;;;;;;;;;4997614;28;20037;-68
2023/09/22 04:41:30;;;;;;;2.35;1.48;;;;;;;;;;4997874;28;20061;-68
2023/09/22 04:44:15;;;;;;;3.13;1.10;;;;;;;;;;4995294;28;20283;-72
2023/09/22 04:47:01;;;;;;;1.05;0.82;;;;;;;;;;5007887;28;20083;-72
2023/09/22 04:49:46;;;;;;;3.33;1.42;;;;;;;;;;4997463;28;20408;-73
2023/09/22 04:52:31;;;;;;;2.25;1.02;;;;;;;;;;4997429;28;20515;-72
2023/09/22 04:55:17;;;;;;;2.60;1.55;;;;;;;;;;5009849;28;20378;-72
2023/09/22 04:58:03;;;;;;;3.75;1.30;;;;;;;;;;4997441;28;20041;-72
2023/09/22 05:00:53;;;;;;;3.42;1.40;;;;;;;;;;4997440;28;20084;-72
2023/09/22 05:03:39;;;;;;;3.67;1.27;;;;;;;;;;4983403;28;20124;-79
2023/09/22 05:06:25;;;;;;;1.15;1.05;;;;;;;;;;4997423;28;20091;-78
2023/09/22 05:09:11;;;;;;;3.15;1.40;;;;;;;;;;4985852;28;20481;-78
2023/09/22 05:11:56;;;;;;;3.97;1.48;;;;;;;;;;4997461;28;20081;-79
2023/09/22 05:14:41;;;;;;;2.10;1.10;;;;;;;;;;4996756;28;20096;-78
2023/09/22 05:17:28;;;;;;;2.33;1.10;;;;;;;;;;4996478;28;20470;-69
2023/09/22 05:20:15;;;;;;;1.95;1.30;;;;;;;;;;4996233;28;20139;-65
2023/09/22 05:23:00;;;;;;;2.40;1.10;;;;;;;;;;4987814;28;20053;-67
2023/09/22 05:25:45;;;;;;;2.10;1.35;;;;;;;;;;4986188;28;20034;-67
2023/09/22 05:28:30;;;;;;;2.50;1.15;;;;;;;;;;4995276;28;20049;-67
2023/09/22 05:31:16;;;;;;;2.65;1.20;;;;;;;;;;4997025;28;20068;-67
2023/09/22 05:34:02;;;;;;;1.67;1.30;;;;;;;;;;4983292;28;20030;-65
2023/09/22 05:36:49;;;;;;;3.40;1.70;;;;;;;;;;4996405;28;20045;-77
2023/09/22 05:39:34;;;;;;;2.83;1.35;;;;;;;;;;4990198;28;20044;-78
2023/09/22 05:42:19;;;;;;;3.80;1.25;;;;;;;;;;4996550;28;20576;-78
2023/09/22 05:45:05;;;;;;;1.98;1.25;;;;;;;;;;4996586;28;20030;-77
2023/09/22 05:47:50;;;;;;;3.50;1.50;;;;;;;;;;5008735;28;20065;-78
2023/09/22 05:50:36;;;;;;;3.55;1.30;;;;;;;;;;4997195;28;20076;-78
2023/09/22 05:53:21;;;;;;;3.30;1.60;;;;;;;;;;4999085;28;20408;-78
2023/09/22 05:56:10;;;;;;;6.80;1.70;;;;;;;;;;4993017;28;20026;-76
2023/09/22 05:58:55;;;;;;;2.22;1.30;;;;;;;;;;4984894;28;20042;-69
2023/09/22 06:01:41;;;;;;;3.97;1.42;;;;;;;;;;4995661;28;20373;-68
2023/09/22 06:04:26;;;;;;;10.73;1.92;;;;;;;;;;4995932;28;20030;-70
2023/09/22 06:07:12;;;;;;;3.38;1.40;;;;;;;;;;4995809;28;20037;-69
2023/09/22 06:09:57;;;;;;;3.22;1.48;;;;;;;;;;4996225;28;20042;-66
2023/09/22 06:12:42;;;;;;;1.48;1.20;;;;;;;;;;4996009;28;20477;-67
2023/09/22 06:15:28;;;;;;;1.35;0.85;;;;;;;;;;4995727;28;20037;-66
2023/09/22 06:18:14;;;;;;;2.40;1.10;;;;;;;;;;4995680;28;20500;-67
2023/09/22 06:21:01;;;;;;;1.48;1.02;;;;;;;;;;4995745;28;20068;-68
2023/09/22 06:23:49;;;;;;;2.35;1.35;;;;;;;;;;4995801;28;20041;-66
2023/09/22 06:26:34;;;;;;;2.17;1.00;;;;;;;;;;4968494;28;20441;-67
2023/09/22 06:29:20;;;;;;;1.55;1.05;;;;;;;;;;4982620;28;20038;-67
2023/09/22 06:32:05;;;;;;;4.85;1.30;;;;;;;;;;4977025;28;20053;-72
2023/09/22 06:34:53;;;;;;;1.70;1.13;;;;;;;;;;4982139;28;20026;-71
2023/09/22 06:37:39;;;;;;;2.25;1.00;;;;;;;;;;4981032;28;20142;-70
2023/09/22 06:40:24;;;;;;;3.00;1.10;;;;;;;;;;4995512;28;20046;-73
2023/09/22 06:43:09;;;;;;;2.58;1.35;;;;;;;;;;4995228;28;20038;-71
2023/09/22 06:45:58;;;;;;;4.80;1.55;;;;;;;;;;4996657;28;20034;-71
2023/09/22 06:48:44;;;;;;;3.28;1.30;;;;;;;;;;5003036;28;20113;-70
2023/09/22 06:51:30;;;;;;;5.18;1.23;;;;;;;;;;4995158;28;20029;-70
2023/09/22 06:54:15;;;;;;;3.85;1.23;;;;;;;;;;5004918;28;20033;-69
2023/09/22 06:57:04;;;;;;;4.70;1.40;;;;;;;;;;4995404;28;20056;-68
2023/09/22 06:59:52;;;;;;;3.25;1.40;;;;;;;;;;4978711;28;20508;-69
2023/09/22 07:02:38;;;;;;;3.60;1.42;;;;;;;;;;4995133;28;20041;-67
2023/09/22 07:05:24;;;;;;;3.38;1.52;;;;;;;;;;4980666;28;20076;-70
2023/09/22 07:08:09;;;;;;;1.67;1.40;;;;;;;;;;4975540;28;20105;-70
2023/09/22 07:11:04;;;;;;;2.92;1.35;;;;;;;;;;4994976;28;20037;-73
2023/09/22 07:13:50;;;;;;;1.63;1.00;;;;;;;;;;4994242;28;20038;-73
2023/09/22 07:16:35;;;;;;;2.65;1.30;;;;;;;;;;4994756;28;20046;-73
2023/09/22 07:19:21;;;;;;;5.38;1.10;;;;;;;;;;4994824;28;20041;-72
2023/09/22 07:22:08;;;;;;;4.80;1.42;;;;;;;;;;4981016;28;20095;-73
2023/09/22 07:24:53;;;;;;;2.72;1.23;;;;;;;;;;4988429;28;20026;-73
2023/09/22 07:27:39;;;;;;;2.00;1.33;;;;;;;;;;4981632;28;20034;-69
2023/09/22 07:30:24;;;;;;;3.58;1.33;;;;;;;;;;4994516;28;20380;-80
2023/09/22 07:33:10;;;;;;;2.47;0.95;;;;;;;;;;4984825;28;20038;-78
2023/09/22 07:35:55;;;;;;;3.78;1.27;;;;;;;;;;4994613;28;20104;-79
2023/09/22 07:38:41;;;;;;;1.50;1.35;;;;;;;;;;4994375;28;20484;-78
2023/09/22 07:41:26;;;;;;;3.72;1.30;;;;;;;;;;4994577;28;20029;-77
2023/09/22 07:44:11;;;;;;;3.72;1.23;;;;;;;;;;4995133;28;20033;-78
2023/09/22 07:46:58;;;;;;;3.85;1.20;;;;;;;;;;5004720;28;20104;-66
2023/09/22 07:49:44;;;;;;;1.80;1.20;;;;;;;;;;4988030;28;20601;-72
2023/09/22 07:52:30;;;;;;;3.92;1.50;;;;;;;;;;4994787;28;20046;-70
2023/09/22 07:55:15;;;;;;;5.68;1.63;;;;;;;;;;4994218;28;20524;-73
2023/09/22 07:58:03;;;;;;;1.75;1.45;;;;;;;;;;4994438;28;20045;-73
2023/09/22 08:00:48;;;;;;;5.05;2.20;;;;;;;;;;4994432;28;20057;-71
2023/09/22 08:03:35;;;;;;;2.67;1.38;;;;;;;;;;4994536;28;20033;-73
2023/09/22 08:06:21;;;;;;;3.33;1.30;;;;;;;;;;4998450;28;20088;-64
2023/09/22 08:09:06;;;;;;;4.97;1.60;;;;;;;;;;4986805;28;20104;-64
2023/09/22 08:11:52;;;;;;;2.05;1.38;;;;;;;;;;4984580;28;20048;-64
2023/09/22 08:14:37;;;;;;;2.70;1.17;;;;;;;;;;4998092;28;20116;-64
2023/09/22 08:17:23;;;;;;;3.90;1.30;;;;;;;;;;4998253;28;20037;-66
2023/09/22 08:20:12;;;;;;;3.30;1.40;;;;;;;;;;4998217;28;20032;-64
2023/09/22 08:22:57;;;;;;;3.28;1.40;;;;;;;;;;4987951;28;20045;-72
2023/09/22 08:25:43;;;;;;;3.08;0.93;;;;;;;;;;4988713;28;20037;-66
2023/09/22 08:28:30;;;;;;;5.35;1.35;;;;;;;;;;4995771;28;20125;-69
2023/09/22 08:31:15;;;;;;;1.95;1.08;;;;;;;;;;4995235;28;20084;-67
2023/09/22 08:34:08;;;;;;;3.30;1.13;;;;;;;;;;4996476;28;20037;-66
2023/09/22 08:36:53;;;;;;;2.40;1.15;;;;;;;;;;4997229;28;20033;-67
2023/09/22 08:39:39;;;;;;;1.20;1.00;;;;;;;;;;4984665;28;20099;-67
2023/09/22 08:42:25;;;;;;;2.78;1.30;;;;;;;;;;4997397;28;20034;-77
2023/09/22 08:45:11;;;;;;;1.58;1.00;;;;;;;;;;4997395;28;20040;-68
2023/09/22 08:47:57;;;;;;;1.08;0.90;;;;;;;;;;5009386;28;20084;-69
2023/09/22 08:50:43;;;;;;;4.22;1.33;;;;;;;;;;4991849;28;20025;-70
2023/09/22 08:53:29;;;;;;;0.70;0.70;;;;;;;;;;5000756;28;20026;-68
2023/09/22 08:56:15;;;;;;;4.22;1.15;;;;;;;;;;5003069;28;20062;-68
2023/09/22 08:59:00;;;;;;;1.70;1.20;;;;;;;;;;4997670;28;20029;-68
2023/09/22 09:01:45;;;;;;;1.30;1.15;;;;;;;;;;4997535;28;20036;-70
2023/09/22 09:04:31;;;;;;;1.27;0.90;;;;;;;;;;4997542;28;20033;-70
2023/09/22 09:07:18;;;;;;;2.55;0.88;;;;;;;;;;4997324;28;20022;-69
2023/09/22 09:10:05;;;;;;;2.95;0.90;;;;;;;;;;4997088;28;20034;-71
2023/09/22 09:12:50;;;;;;;3.35;0.95;;;;;;;;;;4997253;28;20511;-72
2023/09/22 09:15:47;;;;;;;2.33;1.52;;;;;;;;;;4982990;28;20116;-71
2023/09/22 09:18:32;;;;;;;1.63;0.95;;;;;;;;;;4980125;28;20433;-69
2023/09/22 09:21:17;;;;;;;3.42;1.08;;;;;;;;;;4997319;28;20033;-70
2023/09/22 09:24:05;;;;;;;1.48;1.15;;;;;;;;;;4996719;28;20480;-72
2023/09/22 09:26:51;;;;;;;1.27;0.80;;;;;;;;;;4991310;28;20052;-71
2023/09/22 09:29:37;;;;;;;1.77;1.00;;;;;;;;;;4996941;28;20029;-70
2023/09/22 09:32:24;;;;;;;1.33;0.70;;;;;;;;;;4996539;28;20480;-72
2023/09/22 09:35:11;;;;;;;2.40;0.98;;;;;;;;;;4996957;28;20037;-71
2023/09/22 09:38:03;;;;;;;4.90;1.20;;;;;;;;;;4996455;28;20033;-68
2023/09/22 09:40:50;;;;;;;3.50;1.15;;;;;;;;;;4996788;28;20022;-68
2023/09/22 09:43:36;;;;;;;2.22;1.13;;;;;;;;;;4996941;28;20026;-69
2023/09/22 09:46:23;;;;;;;2.15;1.45;;;;;;;;;;4999118;28;20030;-68
2023/09/22 09:49:11;;;;;;;1.63;1.10;;;;;;;;;;4991927;28;20045;-66
2023/09/22 09:51:57;;;;;;;3.92;1.00;;;;;;;;;;4996393;28;20045;-68
2023/09/22 09:54:44;;;;;;;1.25;1.00;;;;;;;;;;4994552;28;20037;-65
2023/09/22 09:57:30;;;;;;;0.88;0.80;;;;;;;;;;4996449;28;20038;-70
2023/09/22 10:00:19;;;;;;;3.33;1.17;;;;;;;;;;4996381;28;20076;-71
2023/09/22 10:03:06;;;;;;;1.75;0.82;;;;;;;;;;4995844;28;20099;-72
2023/09/22 10:05:52;;;;;;;4.45;1.00;;;;;;;;;;4996143;28;20594;-72
2023/09/22 10:08:40;;;;;;;2.05;1.00;;;;;;;;;;4995996;28;20064;-71
2023/09/22 10:11:26;;;;;;;1.50;1.20;;;;;;;;;;4995938;28;20500;-72
2023/09/22 10:14:31;;;;;;;4.80;1.10;;;;;;;;;;4995920;28;20061;-78
2023/09/22 10:17:24;;;;;;;1.88;0.60;;;;;;;;;;4995668;28;20030;-66
2023/09/22 10:20:11;;;;;;;1.38;0.90;;;;;;;;;;4995830;28;20042;-67
2023/09/22 10:23:16;;;;;;;1.88;1.00;;;;;;;;;;4995698;28;20121;-67
2023/09/22 10:26:05;;;;;;;1.48;1.00;;;;;;;;;;4986921;28;20571;-68
2023/09/22 10:28:50;;;;;;;4.25;1.00;;;;;;;;;;4994874;28;20117;-68
2023/09/22 10:31:55;;;;;;;2.05;1.33;;;;;;;;;;4995649;28;20069;-72
2023/09/22 10:34:44;;;;;;;1.17;0.80;;;;;;;;;;4975830;28;20041;-75
2023/09/22 10:37:32;;;;;;;4.13;1.00;;;;;;;;;;4982447;28;20084;-73
2023/09/22 10:40:19;;;;;;;2.08;1.00;;;;;;;;;;4995258;28;20515;-75
2023/09/22 10:43:04;;;;;;;1.63;0.85;;;;;;;;;;4995810;28;20041;-74
2023/09/22 10:45:51;;;;;;;7.57;0.98;;;;;;;;;;4996218;28;20057;-72
2023/09/22 10:48:37;;;;;;;1.55;0.80;;;;;;;;;;5003546;28;20453;-65
2023/09/22 10:51:40;;;;;;;1.20;0.68;;;;;;;;;;4995376;28;20066;-65
2023/09/22 10:54:26;;;;;;;1.33;0.70;;;;;;;;;;5005381;28;20052;-67
2023/09/22 10:57:24;;;;;;;1.55;0.80;;;;;;;;;;4981538;28;20578;-67
2023/09/22 11:00:13;;;;;;;0.80;0.80;;;;;;;;;;4994823;28;20112;-69
2023/09/22 11:02:58;;;;;;;;;;;;;;;;;;4994089;28;20033;-67
2023/09/22 11:05:44;;;;;;;2.15;0.60;;;;;;;;;;4992050;28;19929;-68
2023/09/22 11:08:29;;;;;;;0.98;0.70;;;;;;;;;;4993780;28;20025;-69
2023/09/22 11:11:18;;;;;;;2.22;0.77;;;;;;;;;;4995072;28;20034;-70
2023/09/22 11:14:03;;;;;;;1.42;0.80;;;;;;;;;;4981307;28;20104;-68
2023/09/22 11:16:49;;;;;;;1.75;1.35;;;;;;;;;;4994870;28;20038;-70
2023/09/22 11:19:34;;;;;;;1.15;0.85;;;;;;;;;;4994941;28;20041;-70
2023/09/22 11:22:20;;;;;;;1.42;1.00;;;;;;;;;;4984713;28;20049;-69
2023/09/22 11:25:06;;;;;;;2.83;0.95;;;;;;;;;;4987056;28;20037;-71
2023/09/22 11:27:52;;;;;;;1.60;0.90;;;;;;;;;;4970564;28;20038;-68
2023/09/22 11:30:37;;;;;;;0.85;0.70;;;;;;;;;;4994734;28;20030;-74
2023/09/22 11:33:23;;;;;;;1.45;0.75;;;;;;;;;;4993953;28;20038;-74
2023/09/22 11:36:09;;;;;;;1.27;0.80;;;;;;;;;;4995392;28;20064;-74
2023/09/22 11:38:54;;;;;;;2.58;0.90;;;;;;;;;;4994276;28;20076;-73
2023/09/22 11:41:39;;;;;;;2.72;1.23;;;;;;;;;;4993637;28;20029;-75
2023/09/22 11:44:25;;;;;;;3.60;1.27;;;;;;;;;;4994500;28;20045;-74
2023/09/22 11:47:19;;;;;;;1.05;0.70;;;;;;;;;;4995174;28;20022;-72
2023/09/22 11:50:04;;;;;;;2.50;0.90;;;;;;;;;;4994831;28;20041;-71
2023/09/22 11:52:50;;;;;;;1.10;0.70;;;;;;;;;;4994494;28;20042;-68
2023/09/22 11:55:36;;;;;;;1.92;1.08;;;;;;;;;;4983677;28;20038;-69
2023/09/22 11:58:21;;;;;;;3.25;0.95;;;;;;;;;;4994548;28;20049;-69
2023/09/22 12:01:09;;;;;;;1.85;1.10;;;;;;;;;;4975155;28;20154;-72
2023/09/22 12:03:54;;;;;;;3.10;1.20;;;;;;;;;;4981801;28;20038;-76
2023/09/22 12:06:42;;;;;;;1.88;0.80;;;;;;;;;;4994398;28;20067;-78
2023/09/22 12:09:27;;;;;;;2.00;1.00;;;;;;;;;;4994695;28;20374;-77
2023/09/22 12:12:14;;;;;;;1.70;1.15;;;;;;;;;;4994439;28;20108;-79
2023/09/22 12:15:00;;;;;;;2.63;0.80;;;;;;;;;;4994786;28;20382;-80
2023/09/22 12:17:46;;;;;;;3.35;1.55;;;;;;;;;;5000721;28;20064;-81
2023/09/22 12:20:31;;;;;;;2.60;1.08;;;;;;;;;;4994846;28;20033;-79
2023/09/22 12:23:16;;;;;;;1.75;1.17;;;;;;;;;;4974956;28;20034;-70
2023/09/22 12:26:02;;;;;;;2.22;0.90;;;;;;;;;;4994071;28;20134;-71
2023/09/22 12:28:48;;;;;;;4.45;1.30;;;;;;;;;;4994187;28;20172;-71
2023/09/22 12:31:34;;;;;;;1.45;0.90;;;;;;;;;;4994188;28;20322;-70
2023/09/22 12:34:19;;;;;;;3.47;1.00;;;;;;;;;;4993777;28;20111;-70
2023/09/22 12:37:04;;;;;;;4.95;1.10;;;;;;;;;;4993485;28;20505;-71
2023/09/22 12:39:49;;;;;;;4.95;1.40;;;;;;;;;;4994142;28;20523;-64
2023/09/22 12:42:36;;;;;;;4.57;0.98;;;;;;;;;;4993923;28;20165;-66
2023/09/22 12:45:22;;;;;;;2.25;0.98;;;;;;;;;;4994120;28;20038;-65
2023/09/22 12:48:08;;;;;;;3.17;1.35;;;;;;;;;;5005958;28;20026;-65
2023/09/22 12:50:54;;;;;;;1.42;1.00;;;;;;;;;;4981901;28;20033;-65
2023/09/22 12:53:39;;;;;;;3.75;1.17;;;;;;;;;;5002587;28;20041;-65
2023/09/22 12:56:25;;;;;;;3.35;1.73;;;;;;;;;;5001843;28;20026;-64
2023/09/22 12:59:10;;;;;;;1.70;1.00;;;;;;;;;;4997520;28;20030;-69
2023/09/22 13:01:56;;;;;;;2.35;1.05;;;;;;;;;;4996346;28;20044;-68
2023/09/22 13:04:43;;;;;;;3.85;1.02;;;;;;;;;;4997877;28;20041;-67
2023/09/22 13:07:29;;;;;;;4.07;1.52;;;;;;;;;;4997859;28;20034;-67
2023/09/22 13:10:14;;;;;;;3.03;1.10;;;;;;;;;;4997512;28;20026;-66
2023/09/22 13:12:59;;;;;;;1.65;1.10;;;;;;;;;;4997784;28;20042;-67
2023/09/22 13:15:45;;;;;;;3.35;1.30;;;;;;;;;;4995307;28;20520;-66
2023/09/22 13:18:30;;;;;;;2.47;1.33;;;;;;;;;;4997630;28;20065;-68
2023/09/22 13:21:16;;;;;;;1.90;0.98;;;;;;;;;;4990737;28;20041;-68
2023/09/22 13:24:01;;;;;;;1.65;1.00;;;;;;;;;;4995791;28;20030;-69
2023/09/22 13:26:46;;;;;;;5.93;1.70;;;;;;;;;;4990834;28;20041;-69
2023/09/22 13:29:31;;;;;;;2.22;1.10;;;;;;;;;;4996709;28;20045;-69
2023/09/22 13:32:17;;;;;;;3.20;1.55;;;;;;;;;;4996290;28;20049;-68
2023/09/22 13:35:02;;;;;;;3.60;1.30;;;;;;;;;;4997043;28;20026;-70
2023/09/22 13:37:48;;;;;;;7.18;1.30;;;;;;;;;;4996963;28;20121;-70
2023/09/22 13:40:33;;;;;;;1.67;0.98;;;;;;;;;;4996814;28;20034;-70
2023/09/22 13:43:20;;;;;;;3.63;1.30;;;;;;;;;;4996450;28;20457;-69
2023/09/22 13:46:09;;;;;;;2.60;1.17;;;;;;;;;;4999189;28;20099;-71
2023/09/22 13:48:54;;;;;;;4.78;1.40;;;;;;;;;;5002633;28;20037;-70
2023/09/22 13:51:40;;;;;;;6.53;1.40;;;;;;;;;;4996765;28;20038;-70
2023/09/22 13:54:25;;;;;;;2.08;1.00;;;;;;;;;;5008038;28;20056;-67
2023/09/22 13:57:10;;;;;;;2.63;1.33;;;;;;;;;;4996213;28;20033;-69
2023/09/22 13:59:55;;;;;;;3.85;1.55;;;;;;;;;;4995542;28;20084;-69
2023/09/22 14:02:41;;;;;;;3.65;1.42;;;;;;;;;;4975028;28;20034;-68
2023/09/22 14:05:28;;;;;;;2.83;1.55;;;;;;;;;;4991913;28;20629;-68
2023/09/22 14:08:14;;;;;;;2.20;1.25;;;;;;;;;;4995578;28;20034;-68
2023/09/22 14:10:59;;;;;;;1.15;0.90;;;;;;;;;;4996242;28;20130;-67
2023/09/22 14:13:45;;;;;;;1.80;1.10;;;;;;;;;;4995863;28;20050;-81
2023/09/22 14:16:30;;;;;;;2.22;1.35;;;;;;;;;;4996191;28;20033;-71
2023/09/22 14:19:15;;;;;;;6.75;1.27;;;;;;;;;;4995295;28;20520;-71
2023/09/22 14:22:00;;;;;;;2.40;1.20;;;;;;;;;;4995871;28;20037;-72
2023/09/22 14:24:46;;;;;;;1.77;1.02;;;;;;;;;;4982065;28;20544;-72
2023/09/22 14:27:31;;;;;;;1.63;1.10;;;;;;;;;;4981756;28;20441;-73
2023/09/22 14:30:17;;;;;;;1.95;0.90;;;;;;;;;;4990176;28;20033;-69
2023/09/22 14:33:03;;;;;;;1.85;1.08;;;;;;;;;;4995691;28;20153;-65
2023/09/22 14:35:48;;;;;;;4.82;1.30;;;;;;;;;;4995575;28;20053;-65
2023/09/22 14:38:33;;;;;;;3.47;1.40;;;;;;;;;;4986592;28;20493;-65
2023/09/22 14:41:18;;;;;;;3.08;1.17;;;;;;;;;;4995433;28;20041;-66
2023/09/22 14:44:07;;;;;;;2.75;1.30;;;;;;;;;;4994793;28;20026;-67
2023/09/22 14:46:52;;;;;;;7.13;1.38;;;;;;;;;;5003138;28;20051;-67
2023/09/22 14:49:40;;;;;;;2.88;1.30;;;;;;;;;;4992524;28;20438;-72
2023/09/22 14:52:25;;;;;;;3.28;1.05;;;;;;;;;;4995793;28;20029;-68
2023/09/22 14:55:11;;;;;;;2.05;1.25;;;;;;;;;;5007687;28;20076;-66
2023/09/22 14:57:56;;;;;;;1.85;1.10;;;;;;;;;;4995003;28;20040;-68
2023/09/22 15:00:41;;;;;;;4.97;1.30;;;;;;;;;;4995180;28;20030;-68
2023/09/22 15:03:26;;;;;;;3.67;1.38;;;;;;;;;;4994771;28;20478;-68
2023/09/22 15:06:14;;;;;;;2.08;0.95;;;;;;;;;;4995396;28;20040;-69
2023/09/22 15:09:00;;;;;;;2.03;1.15;;;;;;;;;;4995341;28;20037;-68
2023/09/22 15:11:45;;;;;;;3.13;1.40;;;;;;;;;;4974440;28;20512;-66
2023/09/22 15:14:30;;;;;;;1.67;1.00;;;;;;;;;;4992858;28;20589;-65
2023/09/22 15:17:15;;;;;;;2.70;1.20;;;;;;;;;;4995013;28;20079;-65
2023/09/22 15:20:01;;;;;;;3.70;1.33;;;;;;;;;;4975275;28;20499;-64
2023/09/22 15:22:46;;;;;;;3.17;1.10;;;;;;;;;;4993633;28;20084;-65
2023/09/22 15:25:31;;;;;;;3.63;1.20;;;;;;;;;;4994346;28;20058;-69
2023/09/22 15:28:17;;;;;;;2.75;1.10;;;;;;;;;;4994089;28;20757;-65
2023/09/22 15:31:02;;;;;;;5.07;1.05;;;;;;;;;;4994695;28;20025;-65
2023/09/22 15:33:47;;;;;;;1.08;0.80;;;;;;;;;;4980870;28;20114;-65
2023/09/22 15:36:32;;;;;;;2.92;1.20;;;;;;;;;;4994692;28;20036;-66
2023/09/22 15:39:18;;;;;;;1.00;0.93;;;;;;;;;;4994239;28;20379;-68
2023/09/22 15:42:04;;;;;;;2.33;1.10;;;;;;;;;;4994708;28;20041;-67
2023/09/22 15:44:49;;;;;;;3.97;1.40;;;;;;;;;;4981076;28;20533;-79
2023/09/22 15:47:35;;;;;;;1.95;1.00;;;;;;;;;;5006587;28;20030;-73
2023/09/22 15:50:21;;;;;;;4.13;1.80;;;;;;;;;;4994441;28;20036;-74
2023/09/22 15:53:06;;;;;;;2.47;1.10;;;;;;;;;;4994859;28;20073;-73
2023/09/22 15:55:51;;;;;;;1.63;1.00;;;;;;;;;;5004015;28;20412;-73
2023/09/22 15:58:37;;;;;;;1.33;0.90;;;;;;;;;;4994927;28;20041;-75
2023/09/22 16:01:22;;;;;;;1.00;0.90;;;;;;;;;;4994153;28;20140;-74
2023/09/22 16:04:08;;;;;;;0.95;0.70;;;;;;;;;;4994666;28;20025;-67
2023/09/22 16:06:53;;;;;;;2.13;1.05;;;;;;;;;;4994585;28;20052;-80
2023/09/22 16:09:40;;;;;;;1.48;1.17;;;;;;;;;;4994221;28;20041;-80
2023/09/22 16:12:26;;;;;;;1.77;0.90;;;;;;;;;;4974958;28;20377;-81
2023/09/22 16:15:11;;;;;;;3.42;1.10;;;;;;;;;;4990565;28;20033;-81
2023/09/22 16:17:56;;;;;;;1.83;1.00;;;;;;;;;;4994854;28;20554;-80
2023/09/22 16:20:43;;;;;;;0.80;0.80;;;;;;;;;;4982137;28;20485;-79
2023/09/22 16:23:28;;;;;;;3.58;1.40;;;;;;;;;;4993571;28;20038;-67
2023/09/22 16:26:14;;;;;;;1.05;0.95;;;;;;;;;;4987965;28;20096;-69
2023/09/22 16:28:59;;;;;;;1.60;1.00;;;;;;;;;;4982126;28;20037;-69
2023/09/22 16:31:44;;;;;;;1.70;1.27;;;;;;;;;;4998132;28;20033;-72
2023/09/22 16:34:29;;;;;;;2.63;0.90;;;;;;;;;;4997592;28;20034;-73
2023/09/22 16:37:15;;;;;;;1.52;1.10;;;;;;;;;;4997530;28;20045;-70
2023/09/22 16:40:01;;;;;;;1.02;0.90;;;;;;;;;;4997850;28;20037;-71